Latest Coastal Weather Observations for Point Stuart

IDD60701

Issued at 9:45 pm CST Wednesday 22 October 2014 (issued every 10 minutes, with the page automatically refreshed every 10 minutes)

About coastal observations | Map of coastal stations | Coastal observations for NT | Marine services | Other Formats
Station Details ID: 014254 Name: POINT STUART Lat: -12.24 Lon: 131.88 Height: 1.0 m
Data from the previous 72 hours. | See also: Recent months for locations in Northern Territory
Date/Time
CST
Temp

°C
Wind Pressure Rain
since 9am
mm
Weather Cloud Vis
km
Sea
Height
m
Swell
Dir
 
Speed
knots
Gust
knots
hPa Trend Height
m
Period
s
Dir
22/09:30pm 28.1 NNE 9 15 1012.7 - 0.0 - - - - - - -
22/09:00pm 28.4 NNE 9 15 1012.3 - 0.0 - - - - - - -
22/08:30pm 28.6 NNE 9 15 1012.0 - 0.0 - - - - - - -
22/08:00pm 28.4 N 7 13 1011.6 - 0.0 - - - - - - -
22/07:30pm 28.2 N 8 12 1011.3 - 0.0 - - - - - - -
22/07:00pm 28.4 N 8 13 1011.0 - 0.0 - - - - - - -
22/06:30pm 28.9 N 7 11 1010.7 - 0.0 - - - - - - -
22/06:00pm 30.3 N 8 13 1010.2 - 0.0 - - - - - - -
22/05:30pm 31.5 N 7 10 1009.7 - 0.0 - - - - - - -
22/05:00pm 32.8 NNW 9 13 1009.5 - 0.0 - - - - - - -
22/04:30pm 32.7 NNW 9 13 1009.3 - 0.0 - - - - - - -
22/04:00pm 33.5 NW 10 14 1009.4 - 0.0 - - - - - - -
22/03:30pm 33.7 NNW 9 12 1009.5 - 0.0 - - - - - - -
22/03:00pm 33.8 NNW 9 13 1009.9 - 0.0 - - - - - - -
22/02:30pm 33.4 N 7 12 1010.3 - 0.0 - - - - - - -
22/02:00pm 33.1 N 9 14 1010.8 - 0.0 - - - - - - -
22/01:30pm 32.2 N 9 15 1011.5 - 0.0 - - - - - - -
22/01:00pm 31.9 N 9 15 1012.2 - 0.0 - - - - - - -
22/12:30pm 31.9 NNE 8 13 1012.9 - 0.0 - - - - - - -
22/12:00pm 32.4 NE 9 14 1013.5 - 0.0 - - - - - - -
22/11:30am 32.4 NE 10 16 1014.0 - 0.0 - - - - - - -
22/11:00am 31.9 ENE 9 14 1014.4 - 0.0 - - - - - - -
22/10:30am 30.4 E 8 13 1014.9 - 0.0 - - - - - - -
22/10:00am 30.2 E 7 13 1015.1 - 0.0 - - - - - - -
22/09:30am 30.8 E 7 11 1015.2 - 0.0 - - - - - - -
22/09:00am 30.2 ENE 7 10 1015.2 - 0.0 - - - - - - -
22/08:30am 28.2 SE 7 9 1014.9 - 0.0 - - - - - - -
22/08:00am 28.6 ESE 5 8 1014.4 - 0.0 - - - - - - -
22/07:30am 26.0 ESE 2 5 1014.1 - 0.0 - - - - - - -
22/07:00am 23.4 SE 3 4 1014.0 - 0.0 - - - - - - -
22/06:30am 22.5 ENE 1 3 1013.4 - 0.0 - - - - - - -
22/06:00am 22.7 NE 0 0 1013.1 - 0.0 - - - - - - -
22/05:30am 23.2 S 2 4 1013.2 - 0.0 - - - - - - -
22/05:00am 23.2 S 3 4 1013.0 - 0.0 - - - - - - -
22/04:30am 23.3 WSW 5 6 1012.7 - 0.0 - - - - - - -
22/04:00am 24.6 CALM 0 0 1012.9 - 0.0 - - - - - - -
22/03:30am 25.1 SE 3 4 1013.1 - 0.0 - - - - - - -
22/03:00am 25.3 SE 5 6 1013.2 - 0.0 - - - - - - -
22/02:30am 24.8 CALM 0 0 1013.3 - 0.0 - - - - - - -
22/02:00am 25.4 N 2 3 1013.7 - 0.0 - - - - - - -
22/01:30am 25.1 NE 2 4 1014.0 - 0.0 - - - - - - -
22/01:00am 25.4 N 0 0 1014.0 - 0.0 - - - - - - -
22/12:30am 26.0 N 3 4 1014.3 - 0.0 - - - - - - -
22/12:00am 26.3 N 4 6 1014.3 - 0.0 - - - - - - -
 
Date/Time
CST
Temp

°C
Wind Pressure Rain
since 9am
mm
Weather Cloud Vis
km
Sea
Height
m
Swell
Dir
 
Speed
knots
Gust
knots
hPa Trend Height
m
Period
s
Dir
21/11:30pm 26.7 N 4 6 1014.5 - 0.0 - - - - - - -
21/11:00pm 27.1 N 5 8 1014.6 - 0.0 - - - - - - -
21/10:30pm 27.4 NNE 6 11 1014.4 - 0.0 - - - - - - -
21/10:00pm 27.5 NNE 9 14 1013.9 - 0.0 - - - - - - -
21/09:30pm 27.7 NNE 9 16 1013.5 - 0.0 - - - - - - -
21/09:00pm 28.0 NNE 9 14 1013.1 - 0.0 - - - - - - -
21/08:30pm 28.4 NNE 8 14 1012.9 - 0.0 - - - - - - -
21/08:00pm 28.3 N 7 11 1012.5 - 0.0 - - - - - - -
21/07:30pm 28.1 N 7 11 1012.3 - 0.0 - - - - - - -
21/07:00pm 28.3 N 8 11 1011.8 - 0.0 - - - - - - -
21/06:30pm 29.0 N 8 15 1011.6 - 0.0 - - - - - - -
21/06:00pm 30.5 N 6 9 1011.1 - 0.0 - - - - - - -
21/05:30pm 31.0 N 7 12 1010.9 - 0.0 - - - - - - -
21/05:00pm 31.9 NNW 9 14 1010.3 - 0.0 - - - - - - -
21/04:30pm 33.5 NW 10 13 1010.3 - 0.0 - - - - - - -
21/04:00pm 33.7 NNW 7 12 1010.3 - 0.0 - - - - - - -
21/03:30pm 33.4 N 8 14 1010.3 - 0.0 - - - - - - -
21/03:00pm 33.4 N 9 13 1010.7 - 0.0 - - - - - - -
21/02:30pm 33.5 N 8 13 1011.2 - 0.0 - - - - - - -
21/02:00pm 33.2 N 7 13 1011.7 - 0.0 - - - - - - -
21/01:30pm 32.9 N 8 12 1012.4 - 0.0 - - - - - - -
21/01:00pm 33.0 N 8 14 1013.0 - 0.0 - - - - - - -
21/12:30pm 33.3 NNE 8 12 1013.8 - 0.0 - - - - - - -
21/12:00pm 33.9 NE 9 14 1014.5 - 0.0 - - - - - - -
21/11:30am 32.6 NE 9 15 1014.9 - 0.0 - - - - - - -
21/11:00am 32.1 NE 9 12 1015.3 - 0.0 - - - - - - -
21/10:30am 30.9 E 9 13 1015.6 - 0.0 - - - - - - -
21/10:00am 30.4 E 9 13 1015.9 - 0.0 - - - - - - -
21/09:30am 30.1 E 10 15 1016.0 - 0.0 - - - - - - -
21/09:00am 29.5 E 10 14 1015.9 - 0.0 - - - - - - -
21/08:30am 29.0 ESE 12 14 1015.6 - 0.0 - - - - - - -
21/08:00am 29.0 ENE 12 16 1015.2 - 0.0 - - - - - - -
21/07:30am 28.3 ENE 10 13 1014.7 - 0.0 - - - - - - -
21/07:00am 26.9 NE 6 11 1014.3 - 0.0 - - - - - - -
21/06:30am 25.4 NE 5 7 1014.0 - 0.0 - - - - - - -
21/06:00am 25.0 NE 5 6 1013.6 - 0.0 - - - - - - -
21/05:30am 24.4 NE 3 4 1013.5 - 0.0 - - - - - - -
21/05:00am 23.9 ENE 1 3 1013.5 - 0.0 - - - - - - -
21/04:30am 23.7 CALM 0 0 1013.5 - 0.0 - - - - - - -
21/04:00am 24.3 S 3 5 1013.4 - 0.0 - - - - - - -
21/03:30am 26.5 ENE 5 6 1013.3 - 0.0 - - - - - - -
21/03:00am 26.9 NE 7 9 1013.3 - 0.0 - - - - - - -
21/02:30am 27.3 NE 7 9 1013.5 - 0.0 - - - - - - -
21/02:00am 27.2 NE 5 7 1013.8 - 0.0 - - - - - - -
21/01:30am 27.3 NE 5 7 1014.0 - 0.0 - - - - - - -
21/01:00am 26.9 ENE 7 9 1014.2 - 0.0 - - - - - - -
21/12:30am 26.6 NE 5 6 1014.4 - 0.0 - - - - - - -
21/12:00am 26.9 NE 6 9 1014.4 - 0.0 - - - - - - -
 
Date/Time
CST
Temp

°C
Wind Pressure Rain
since 9am
mm
Weather Cloud Vis
km
Sea
Height
m
Swell
Dir
 
Speed
knots
Gust
knots
hPa Trend Height
m
Period
s
Dir
20/11:30pm 27.1 NE 5 8 1014.3 - 0.0 - - - - - - -
20/11:00pm 26.7 NNE 4 7 1014.3 - 0.0 - - - - - - -
20/10:30pm 27.4 NNE 8 13 1013.7 - 0.0 - - - - - - -
20/10:00pm 27.5 NNE 8 13 1013.2 - 0.0 - - - - - - -
20/09:30pm 27.7 NNE 8 14 1012.8 - 0.0 - - - - - - -
20/09:00pm 27.9 NNE 9 14 1012.4 - 0.0 - - - - - - -
20/08:30pm 28.2 NNE 10 15 1012.0 - 0.0 - - - - - - -
20/08:00pm 28.4 NNE 7 11 1011.7 - 0.0 - - - - - - -
20/07:30pm 28.8 NNE 9 14 1011.3 - 0.0 - - - - - - -
20/07:00pm 29.1 NNE 8 13 1010.9 - 0.0 - - - - - - -
20/06:30pm 29.5 NNE 9 14 1010.4 - 0.0 - - - - - - -
20/06:00pm 30.0 NNE 10 16 1009.8 - 0.0 - - - - - - -
20/05:30pm 30.8 N 9 16 1009.5 - 0.0 - - - - - - -
20/05:00pm 31.4 N 9 14 1009.3 - 0.0 - - - - - - -
20/04:30pm 33.2 N 7 11 1009.1 - 0.0 - - - - - - -
20/04:00pm 33.8 N 7 11 1009.2 - 0.0 - - - - - - -
20/03:30pm 33.3 N 8 13 1009.5 - 0.0 - - - - - - -
20/03:00pm 33.3 N 9 13 1009.8 - 0.0 - - - - - - -
20/02:30pm 33.6 NNE 9 16 1010.2 - 0.0 - - - - - - -
20/02:00pm 33.3 N 9 13 1010.8 - 0.0 - - - - - - -
20/01:30pm 32.0 N 10 15 1011.6 - 0.0 - - - - - - -
20/01:00pm 31.6 NNE 10 15 1012.2 - 0.0 - - - - - - -
20/12:30pm 32.0 NNE 10 15 1012.8 - 0.0 - - - - - - -
20/12:00pm 31.9 NNE 10 18 1013.3 - 0.0 - - - - - - -
20/11:30am 33.4 NNE 8 13 1013.6 - 0.0 - - - - - - -
20/11:00am 31.7 NE 8 12 1014.1 - 0.0 - - - - - - -
20/10:30am 31.5 ENE 9 13 1014.5 - 0.0 - - - - - - -
20/10:00am 30.3 ENE 8 11 1014.7 - 0.0 - - - - - - -
20/09:30am 29.5 E 9 14 1015.1 - 0.0 - - - - - - -
20/09:00am 29.6 E 9 13 1014.9 - 0.0 - - - - - - -
20/08:30am 29.0 E 9 13 1014.9 - 0.0 - - - - - - -
20/08:00am 28.3 E 9 13 1014.5 - 0.0 - - - - - - -
20/07:30am 27.8 NE 7 9 1014.0 - 0.0 - - - - - - -
20/07:00am 26.3 ENE 6 8 1013.6 - 0.0 - - - - - - -
20/06:30am 24.5 E 5 7 1013.4 - 0.0 - - - - - - -
20/06:00am 23.4 ESE 4 5 1013.2 - 0.0 - - - - - - -
20/05:30am 23.7 SSE 4 4 1013.1 - 0.0 - - - - - - -
20/05:00am 24.2 SE 5 6 1012.8 - 0.0 - - - - - - -
20/04:30am 24.4 ESE 4 5 1012.6 - 0.0 - - - - - - -
20/04:00am 25.0 ESE 5 6 1012.5 - 0.0 - - - - - - -
20/03:30am 25.6 ESE 6 7 1012.4 - 0.0 - - - - - - -
20/03:00am 26.8 ESE 7 9 1012.4 - 0.0 - - - - - - -
20/02:30am 27.2 ENE 9 13 1012.6 - 0.0 - - - - - - -
20/02:00am 27.5 ENE 8 12 1012.8 - 0.0 - - - - - - -
20/01:30am 27.7 ENE 10 15 1013.2 - 0.0 - - - - - - -
20/01:00am 27.4 NE 9 13 1013.3 - 0.0 - - - - - - -
20/12:30am 27.5 NE 10 13 1013.6 - 0.0 - - - - - - -
20/12:00am 27.6 NE 11 15 1013.8 - 0.0 - - - - - - -
 
Date/Time
CST
Temp

°C
Wind Pressure Rain
since 9am
mm
Weather Cloud Vis
km
Sea
Height
m
Swell
Dir
 
Speed
knots
Gust
knots
hPa Trend Height
m
Period
s
Dir
19/11:30pm 27.8 NE 7 11 1013.9 - 0.0 - - - - - - -
19/11:00pm 27.7 NE 10 14 1013.5 - 0.0 - - - - - - -
19/10:30pm 27.7 NE 9 12 1013.2 - 0.0 - - - - - - -
19/10:00pm 27.8 NNE 8 14 1013.0 - 0.0 - - - - - - -

Other Formats:

Comma delimited format used in spreadsheet applications
http://www.bom.gov.au/fwo/IDD60701/IDD60701.94127.axf

JavaScript Object Notation format (JSON) in row-major order
http://www.bom.gov.au/fwo/IDD60701/IDD60701.94127.json